sensor_id;sensor_type;location;lat;lon;timestamp;P1;durP1;ratioP1;P2;durP2;ratioP2
77612;SDS011;66777;52.282;5.960;2023-06-26T00:00:18;407.95;;;397.23;;
77612;SDS011;66777;52.282;5.960;2023-06-26T00:02:44;407.88;;;397.10;;
77612;SDS011;66777;52.282;5.960;2023-06-26T00:05:10;408.10;;;397.33;;
77612;SDS011;66777;52.282;5.960;2023-06-26T00:07:35;414.83;;;404.00;;
77612;SDS011;66777;52.282;5.960;2023-06-26T00:10:02;413.00;;;402.23;;
77612;SDS011;66777;52.282;5.960;2023-06-26T00:12:28;403.15;;;392.52;;
77612;SDS011;66777;52.282;5.960;2023-06-26T00:14:55;411.40;;;400.63;;
77612;SDS011;66777;52.282;5.960;2023-06-26T00:17:20;395.42;;;384.90;;
77612;SDS011;66777;52.282;5.960;2023-06-26T00:19:47;400.38;;;389.67;;
77612;SDS011;66777;52.282;5.960;2023-06-26T00:22:12;396.92;;;386.50;;
77612;SDS011;66777;52.282;5.960;2023-06-26T00:24:38;404.50;;;393.67;;
77612;SDS011;66777;52.282;5.960;2023-06-26T00:27:04;393.20;;;382.95;;
77612;SDS011;66777;52.282;5.960;2023-06-26T00:29:30;411.13;;;400.42;;
77612;SDS011;66777;52.282;5.960;2023-06-26T00:31:55;400.50;;;390.00;;
77612;SDS011;66777;52.282;5.960;2023-06-26T00:34:21;406.80;;;396.25;;
77612;SDS011;66777;52.282;5.960;2023-06-26T00:36:47;397.30;;;386.90;;
77612;SDS011;66777;52.282;5.960;2023-06-26T00:39:12;394.15;;;383.77;;
77612;SDS011;66777;52.282;5.960;2023-06-26T00:41:38;395.85;;;385.40;;
77612;SDS011;66777;52.282;5.960;2023-06-26T00:44:04;392.50;;;382.23;;
77612;SDS011;66777;52.282;5.960;2023-06-26T00:46:30;400.88;;;390.52;;
77612;SDS011;66777;52.282;5.960;2023-06-26T00:48:56;378.90;;;368.90;;
77612;SDS011;66777;52.282;5.960;2023-06-26T00:51:25;400.15;;;389.77;;
77612;SDS011;66777;52.282;5.960;2023-06-26T00:53:52;390.92;;;380.70;;
77612;SDS011;66777;52.282;5.960;2023-06-26T00:56:17;394.45;;;384.02;;
77612;SDS011;66777;52.282;5.960;2023-06-26T00:58:44;393.08;;;382.90;;
77612;SDS011;66777;52.282;5.960;2023-06-26T01:01:10;400.00;;;389.45;;
77612;SDS011;66777;52.282;5.960;2023-06-26T01:03:40;403.65;;;393.05;;
77612;SDS011;66777;52.282;5.960;2023-06-26T01:06:07;396.42;;;386.05;;
77612;SDS011;66777;52.282;5.960;2023-06-26T01:08:36;398.10;;;387.50;;
77612;SDS011;66777;52.282;5.960;2023-06-26T01:11:03;389.15;;;378.85;;
77612;SDS011;66777;52.282;5.960;2023-06-26T01:13:28;389.27;;;379.08;;
77612;SDS011;66777;52.282;5.960;2023-06-26T01:15:55;387.60;;;377.58;;
77612;SDS011;66777;52.282;5.960;2023-06-26T01:18:23;406.23;;;395.80;;
77612;SDS011;66777;52.282;5.960;2023-06-26T01:20:50;393.27;;;383.02;;
77612;SDS011;66777;52.282;5.960;2023-06-26T01:28:35;369.42;;;359.73;;
77612;SDS011;66777;52.282;5.960;2023-06-26T01:31:05;386.17;;;376.15;;
77612;SDS011;66777;52.282;5.960;2023-06-26T01:33:32;379.88;;;369.90;;
77612;SDS011;66777;52.282;5.960;2023-06-26T01:35:58;382.45;;;372.52;;
77612;SDS011;66777;52.282;5.960;2023-06-26T01:38:23;388.23;;;378.15;;
77612;SDS011;66777;52.282;5.960;2023-06-26T01:40:50;379.17;;;369.38;;
77612;SDS011;66777;52.282;5.960;2023-06-26T01:43:31;407.52;;;397.02;;
77612;SDS011;66777;52.282;5.960;2023-06-26T01:49:42;366.02;;;356.25;;
77612;SDS011;66777;52.282;5.960;2023-06-26T01:52:19;388.58;;;378.50;;
77612;SDS011;66777;52.282;5.960;2023-06-26T01:55:05;392.92;;;382.63;;
77612;SDS011;66777;52.282;5.960;2023-06-26T01:57:40;376.20;;;366.42;;
77612;SDS011;66777;52.282;5.960;2023-06-26T02:00:07;382.88;;;372.95;;
77612;SDS011;66777;52.282;5.960;2023-06-26T02:02:36;362.58;;;353.05;;
77612;SDS011;66777;52.282;5.960;2023-06-26T02:05:02;391.42;;;381.20;;
77612;SDS011;66777;52.282;5.960;2023-06-26T02:07:27;361.30;;;351.75;;
77612;SDS011;66777;52.282;5.960;2023-06-26T02:09:53;382.52;;;372.75;;
77612;SDS011;66777;52.282;5.960;2023-06-26T02:12:19;373.40;;;363.80;;
77612;SDS011;66777;52.282;5.960;2023-06-26T02:14:44;386.27;;;376.35;;
77612;SDS011;66777;52.282;5.960;2023-06-26T02:17:10;390.95;;;380.92;;
77612;SDS011;66777;52.282;5.960;2023-06-26T02:19:36;397.63;;;387.52;;
77612;SDS011;66777;52.282;5.960;2023-06-26T02:22:01;384.70;;;374.75;;
77612;SDS011;66777;52.282;5.960;2023-06-26T02:24:27;375.00;;;365.33;;
77612;SDS011;66777;52.282;5.960;2023-06-26T02:26:55;377.75;;;367.83;;
77612;SDS011;66777;52.282;5.960;2023-06-26T02:29:22;394.58;;;384.35;;
77612;SDS011;66777;52.282;5.960;2023-06-26T02:31:47;398.42;;;388.25;;
77612;SDS011;66777;52.282;5.960;2023-06-26T02:34:13;377.25;;;367.48;;
77612;SDS011;66777;52.282;5.960;2023-06-26T02:36:39;366.38;;;356.75;;
77612;SDS011;66777;52.282;5.960;2023-06-26T02:39:05;381.98;;;372.08;;
77612;SDS011;66777;52.282;5.960;2023-06-26T02:41:31;378.90;;;369.25;;
77612;SDS011;66777;52.282;5.960;2023-06-26T02:43:56;395.95;;;385.92;;
77612;SDS011;66777;52.282;5.960;2023-06-26T02:46:22;386.42;;;376.33;;
77612;SDS011;66777;52.282;5.960;2023-06-26T02:48:47;379.95;;;370.25;;
77612;SDS011;66777;52.282;5.960;2023-06-26T02:51:13;379.00;;;369.33;;
77612;SDS011;66777;52.282;5.960;2023-06-26T02:53:38;376.42;;;366.85;;
77612;SDS011;66777;52.282;5.960;2023-06-26T02:56:04;380.85;;;371.08;;
77612;SDS011;66777;52.282;5.960;2023-06-26T02:58:30;400.90;;;390.80;;
77612;SDS011;66777;52.282;5.960;2023-06-26T03:00:55;379.52;;;369.95;;
77612;SDS011;66777;52.282;5.960;2023-06-26T03:03:21;377.77;;;367.83;;
77612;SDS011;66777;52.282;5.960;2023-06-26T03:05:47;377.88;;;368.20;;
77612;SDS011;66777;52.282;5.960;2023-06-26T03:08:12;410.00;;;399.83;;
77612;SDS011;66777;52.282;5.960;2023-06-26T03:10:38;389.13;;;379.27;;
77612;SDS011;66777;52.282;5.960;2023-06-26T03:13:03;382.90;;;373.23;;
77612;SDS011;66777;52.282;5.960;2023-06-26T03:15:29;385.20;;;375.73;;
77612;SDS011;66777;52.282;5.960;2023-06-26T03:17:54;387.65;;;378.10;;
77612;SDS011;66777;52.282;5.960;2023-06-26T03:20:20;386.63;;;377.02;;
77612;SDS011;66777;52.282;5.960;2023-06-26T03:22:45;387.95;;;378.45;;
77612;SDS011;66777;52.282;5.960;2023-06-26T03:25:11;401.58;;;391.60;;
77612;SDS011;66777;52.282;5.960;2023-06-26T03:27:36;392.95;;;383.20;;
77612;SDS011;66777;52.282;5.960;2023-06-26T03:30:02;393.23;;;383.48;;
77612;SDS011;66777;52.282;5.960;2023-06-26T03:32:28;384.60;;;375.08;;
77612;SDS011;66777;52.282;5.960;2023-06-26T03:34:53;401.52;;;391.58;;
77612;SDS011;66777;52.282;5.960;2023-06-26T03:37:19;393.08;;;383.48;;
77612;SDS011;66777;52.282;5.960;2023-06-26T03:39:44;369.10;;;359.92;;
77612;SDS011;66777;52.282;5.960;2023-06-26T03:42:10;395.10;;;385.50;;
77612;SDS011;66777;52.282;5.960;2023-06-26T03:44:35;375.70;;;366.30;;
77612;SDS011;66777;52.282;5.960;2023-06-26T03:47:01;398.17;;;387.98;;
77612;SDS011;66777;52.282;5.960;2023-06-26T03:49:27;380.40;;;370.95;;
77612;SDS011;66777;52.282;5.960;2023-06-26T03:51:52;383.40;;;373.85;;
77612;SDS011;66777;52.282;5.960;2023-06-26T03:54:18;385.52;;;376.00;;
77612;SDS011;66777;52.282;5.960;2023-06-26T03:56:43;384.30;;;374.60;;
77612;SDS011;66777;52.282;5.960;2023-06-26T03:59:09;387.65;;;378.05;;
77612;SDS011;66777;52.282;5.960;2023-06-26T04:01:36;382.17;;;372.38;;
77612;SDS011;66777;52.282;5.960;2023-06-26T04:04:02;391.98;;;382.25;;
77612;SDS011;66777;52.282;5.960;2023-06-26T04:06:28;387.35;;;377.70;;
77612;SDS011;66777;52.282;5.960;2023-06-26T04:08:53;379.05;;;369.55;;
77612;SDS011;66777;52.282;5.960;2023-06-26T04:11:19;393.27;;;383.38;;
77612;SDS011;66777;52.282;5.960;2023-06-26T04:13:44;400.15;;;389.77;;
77612;SDS011;66777;52.282;5.960;2023-06-26T04:16:10;385.23;;;375.52;;
77612;SDS011;66777;52.282;5.960;2023-06-26T04:18:36;383.80;;;374.25;;
77612;SDS011;66777;52.282;5.960;2023-06-26T04:23:34;389.48;;;379.65;;
77612;SDS011;66777;52.282;5.960;2023-06-26T04:26:00;388.85;;;379.13;;
77612;SDS011;66777;52.282;5.960;2023-06-26T04:28:27;378.83;;;369.42;;
77612;SDS011;66777;52.282;5.960;2023-06-26T04:30:53;397.17;;;387.25;;
77612;SDS011;66777;52.282;5.960;2023-06-26T04:33:19;395.88;;;386.05;;
77612;SDS011;66777;52.282;5.960;2023-06-26T04:35:45;391.45;;;381.60;;
77612;SDS011;66777;52.282;5.960;2023-06-26T04:38:13;382.77;;;373.00;;
77612;SDS011;66777;52.282;5.960;2023-06-26T04:40:40;397.88;;;387.92;;
77612;SDS011;66777;52.282;5.960;2023-06-26T04:43:06;395.75;;;385.77;;
77612;SDS011;66777;52.282;5.960;2023-06-26T04:45:31;384.48;;;374.88;;
77612;SDS011;66777;52.282;5.960;2023-06-26T04:47:57;373.17;;;363.45;;
77612;SDS011;66777;52.282;5.960;2023-06-26T04:50:22;384.88;;;375.27;;
77612;SDS011;66777;52.282;5.960;2023-06-26T04:52:48;388.92;;;378.85;;
77612;SDS011;66777;52.282;5.960;2023-06-26T04:55:14;370.35;;;360.95;;
77612;SDS011;66777;52.282;5.960;2023-06-26T04:57:39;369.67;;;360.13;;
77612;SDS011;66777;52.282;5.960;2023-06-26T05:00:05;390.52;;;380.65;;
77612;SDS011;66777;52.282;5.960;2023-06-26T05:02:34;357.73;;;348.27;;
77612;SDS011;66777;52.282;5.960;2023-06-26T05:05:00;370.67;;;361.15;;
77612;SDS011;66777;52.282;5.960;2023-06-26T05:07:26;386.55;;;376.85;;
77612;SDS011;66777;52.282;5.960;2023-06-26T05:09:51;374.60;;;365.08;;
77612;SDS011;66777;52.282;5.960;2023-06-26T05:12:17;391.85;;;381.63;;
77612;SDS011;66777;52.282;5.960;2023-06-26T05:14:42;394.85;;;384.88;;
77612;SDS011;66777;52.282;5.960;2023-06-26T05:17:08;388.90;;;378.98;;
77612;SDS011;66777;52.282;5.960;2023-06-26T05:19:34;367.20;;;357.30;;
77612;SDS011;66777;52.282;5.960;2023-06-26T05:22:00;387.52;;;377.73;;
77612;SDS011;66777;52.282;5.960;2023-06-26T05:24:29;369.15;;;359.60;;
77612;SDS011;66777;52.282;5.960;2023-06-26T05:26:55;366.58;;;357.10;;
77612;SDS011;66777;52.282;5.960;2023-06-26T05:29:21;378.55;;;368.58;;
77612;SDS011;66777;52.282;5.960;2023-06-26T05:31:48;380.05;;;369.88;;
77612;SDS011;66777;52.282;5.960;2023-06-26T05:34:15;384.70;;;374.92;;
77612;SDS011;66777;52.282;5.960;2023-06-26T05:36:44;385.55;;;375.73;;
77612;SDS011;66777;52.282;5.960;2023-06-26T05:39:13;382.20;;;372.60;;
77612;SDS011;66777;52.282;5.960;2023-06-26T05:41:39;381.88;;;371.92;;
77612;SDS011;66777;52.282;5.960;2023-06-26T05:44:04;373.40;;;364.20;;
77612;SDS011;66777;52.282;5.960;2023-06-26T05:46:30;375.17;;;365.75;;
77612;SDS011;66777;52.282;5.960;2023-06-26T05:48:56;391.85;;;382.00;;
77612;SDS011;66777;52.282;5.960;2023-06-26T05:51:22;382.42;;;372.90;;
77612;SDS011;66777;52.282;5.960;2023-06-26T05:53:48;387.55;;;378.02;;
77612;SDS011;66777;52.282;5.960;2023-06-26T05:56:14;394.30;;;384.52;;
77612;SDS011;66777;52.282;5.960;2023-06-26T05:58:40;375.40;;;366.27;;
77612;SDS011;66777;52.282;5.960;2023-06-26T06:01:07;394.38;;;384.83;;
77612;SDS011;66777;52.282;5.960;2023-06-26T06:03:33;392.50;;;383.02;;
77612;SDS011;66777;52.282;5.960;2023-06-26T06:05:58;378.95;;;369.90;;
77612;SDS011;66777;52.282;5.960;2023-06-26T06:08:24;389.52;;;380.25;;
77612;SDS011;66777;52.282;5.960;2023-06-26T06:10:50;385.92;;;376.38;;
77612;SDS011;66777;52.282;5.960;2023-06-26T06:13:16;380.90;;;371.80;;
77612;SDS011;66777;52.282;5.960;2023-06-26T06:15:41;374.13;;;365.13;;
77612;SDS011;66777;52.282;5.960;2023-06-26T06:18:07;395.02;;;385.52;;
77612;SDS011;66777;52.282;5.960;2023-06-26T06:20:32;381.52;;;372.42;;
77612;SDS011;66777;52.282;5.960;2023-06-26T06:22:58;390.80;;;381.48;;
77612;SDS011;66777;52.282;5.960;2023-06-26T06:25:24;378.85;;;369.90;;
77612;SDS011;66777;52.282;5.960;2023-06-26T06:27:49;401.08;;;391.55;;
77612;SDS011;66777;52.282;5.960;2023-06-26T06:30:15;403.38;;;393.95;;
77612;SDS011;66777;52.282;5.960;2023-06-26T06:32:40;380.50;;;371.42;;
77612;SDS011;66777;52.282;5.960;2023-06-26T06:35:06;376.90;;;367.83;;
77612;SDS011;66777;52.282;5.960;2023-06-26T06:37:37;378.95;;;370.05;;
77612;SDS011;66777;52.282;5.960;2023-06-26T06:40:04;369.65;;;360.80;;
77612;SDS011;66777;52.282;5.960;2023-06-26T06:42:31;381.25;;;372.08;;
77612;SDS011;66777;52.282;5.960;2023-06-26T06:44:58;371.88;;;363.05;;
77612;SDS011;66777;52.282;5.960;2023-06-26T06:47:24;402.05;;;392.52;;
77612;SDS011;66777;52.282;5.960;2023-06-26T06:49:49;392.63;;;383.27;;
77612;SDS011;66777;52.282;5.960;2023-06-26T06:52:15;403.13;;;393.65;;
77612;SDS011;66777;52.282;5.960;2023-06-26T06:54:53;386.55;;;377.42;;
77612;SDS011;66777;52.282;5.960;2023-06-26T06:57:20;397.98;;;388.42;;
77612;SDS011;66777;52.282;5.960;2023-06-26T06:59:46;407.80;;;398.13;;
77612;SDS011;66777;52.282;5.960;2023-06-26T07:02:13;407.38;;;397.60;;
77612;SDS011;66777;52.282;5.960;2023-06-26T07:04:41;394.23;;;384.92;;
77612;SDS011;66777;52.282;5.960;2023-06-26T07:07:06;399.65;;;390.23;;
77612;SDS011;66777;52.282;5.960;2023-06-26T07:09:32;404.15;;;394.20;;
77612;SDS011;66777;52.282;5.960;2023-06-26T07:11:58;386.73;;;377.55;;
77612;SDS011;66777;52.282;5.960;2023-06-26T07:14:23;394.75;;;385.30;;
77612;SDS011;66777;52.282;5.960;2023-06-26T07:16:49;397.83;;;388.15;;
77612;SDS011;66777;52.282;5.960;2023-06-26T07:19:14;410.70;;;401.00;;
77612;SDS011;66777;52.282;5.960;2023-06-26T07:21:40;407.83;;;398.23;;
77612;SDS011;66777;52.282;5.960;2023-06-26T07:24:06;429.95;;;419.42;;
77612;SDS011;66777;52.282;5.960;2023-06-26T07:26:32;412.38;;;402.45;;
77612;SDS011;66777;52.282;5.960;2023-06-26T07:28:57;408.95;;;399.30;;
77612;SDS011;66777;52.282;5.960;2023-06-26T07:31:23;417.33;;;407.52;;
77612;SDS011;66777;52.282;5.960;2023-06-26T07:33:48;410.38;;;400.73;;
77612;SDS011;66777;52.282;5.960;2023-06-26T07:36:14;398.38;;;388.88;;
77612;SDS011;66777;52.282;5.960;2023-06-26T07:38:39;432.27;;;422.00;;
77612;SDS011;66777;52.282;5.960;2023-06-26T07:41:05;409.08;;;399.42;;
77612;SDS011;66777;52.282;5.960;2023-06-26T07:43:30;417.25;;;407.30;;
77612;SDS011;66777;52.282;5.960;2023-06-26T07:45:56;423.08;;;412.95;;
77612;SDS011;66777;52.282;5.960;2023-06-26T07:48:23;414.85;;;404.85;;
77612;SDS011;66777;52.282;5.960;2023-06-26T07:50:50;407.65;;;397.92;;
77612;SDS011;66777;52.282;5.960;2023-06-26T07:53:15;399.00;;;389.48;;
77612;SDS011;66777;52.282;5.960;2023-06-26T07:55:41;411.20;;;401.38;;
77612;SDS011;66777;52.282;5.960;2023-06-26T07:58:07;412.85;;;403.02;;
77612;SDS011;66777;52.282;5.960;2023-06-26T08:00:33;427.08;;;416.88;;
77612;SDS011;66777;52.282;5.960;2023-06-26T08:02:59;414.77;;;404.92;;
77612;SDS011;66777;52.282;5.960;2023-06-26T08:05:24;437.42;;;427.13;;
77612;SDS011;66777;52.282;5.960;2023-06-26T08:07:50;402.02;;;392.48;;
77612;SDS011;66777;52.282;5.960;2023-06-26T08:10:16;408.27;;;398.48;;
77612;SDS011;66777;52.282;5.960;2023-06-26T08:12:41;429.02;;;418.92;;
77612;SDS011;66777;52.282;5.960;2023-06-26T08:15:09;435.63;;;425.27;;
77612;SDS011;66777;52.282;5.960;2023-06-26T08:17:35;424.00;;;413.90;;
77612;SDS011;66777;52.282;5.960;2023-06-26T08:20:02;421.17;;;411.13;;
77612;SDS011;66777;52.282;5.960;2023-06-26T08:22:27;435.80;;;425.45;;
77612;SDS011;66777;52.282;5.960;2023-06-26T08:24:53;420.42;;;410.38;;
77612;SDS011;66777;52.282;5.960;2023-06-26T08:27:19;409.65;;;399.60;;
77612;SDS011;66777;52.282;5.960;2023-06-26T08:29:44;413.88;;;403.90;;
77612;SDS011;66777;52.282;5.960;2023-06-26T08:32:10;438.80;;;428.50;;
77612;SDS011;66777;52.282;5.960;2023-06-26T08:34:35;425.42;;;415.25;;
77612;SDS011;66777;52.282;5.960;2023-06-26T08:37:01;422.20;;;412.08;;
77612;SDS011;66777;52.282;5.960;2023-06-26T08:39:27;424.35;;;414.17;;
77612;SDS011;66777;52.282;5.960;2023-06-26T08:41:53;439.02;;;428.50;;
77612;SDS011;66777;52.282;5.960;2023-06-26T08:44:18;440.63;;;430.10;;
77612;SDS011;66777;52.282;5.960;2023-06-26T08:46:48;422.70;;;412.48;;
77612;SDS011;66777;52.282;5.960;2023-06-26T08:49:17;428.95;;;418.58;;
77612;SDS011;66777;52.282;5.960;2023-06-26T08:51:49;427.98;;;417.77;;
77612;SDS011;66777;52.282;5.960;2023-06-26T08:54:22;451.80;;;441.15;;
77612;SDS011;66777;52.282;5.960;2023-06-26T08:56:53;419.50;;;409.23;;
77612;SDS011;66777;52.282;5.960;2023-06-26T08:59:20;435.83;;;425.23;;
77612;SDS011;66777;52.282;5.960;2023-06-26T09:01:47;444.38;;;433.60;;
77612;SDS011;66777;52.282;5.960;2023-06-26T09:04:13;428.92;;;418.73;;
77612;SDS011;66777;52.282;5.960;2023-06-26T09:06:39;434.55;;;424.27;;
77612;SDS011;66777;52.282;5.960;2023-06-26T09:09:04;443.08;;;432.23;;
77612;SDS011;66777;52.282;5.960;2023-06-26T09:11:30;442.48;;;432.00;;
77612;SDS011;66777;52.282;5.960;2023-06-26T09:13:56;456.95;;;446.27;;
77612;SDS011;66777;52.282;5.960;2023-06-26T09:16:25;449.63;;;438.88;;
77612;SDS011;66777;52.282;5.960;2023-06-26T09:18:52;450.60;;;439.80;;
77612;SDS011;66777;52.282;5.960;2023-06-26T09:21:18;452.90;;;442.25;;
77612;SDS011;66777;52.282;5.960;2023-06-26T09:23:43;462.30;;;451.42;;
77612;SDS011;66777;52.282;5.960;2023-06-26T09:26:10;438.10;;;427.60;;
77612;SDS011;66777;52.282;5.960;2023-06-26T09:28:36;450.80;;;440.05;;
77612;SDS011;66777;52.282;5.960;2023-06-26T09:31:05;469.55;;;458.42;;
77612;SDS011;66777;52.282;5.960;2023-06-26T09:33:35;454.55;;;443.85;;
77612;SDS011;66777;52.282;5.960;2023-06-26T09:36:18;464.60;;;453.13;;
77612;SDS011;66777;52.282;5.960;2023-06-26T09:38:46;466.88;;;455.83;;
77612;SDS011;66777;52.282;5.960;2023-06-26T09:41:15;449.58;;;438.88;;
77612;SDS011;66777;52.282;5.960;2023-06-26T09:43:48;465.33;;;454.38;;
77612;SDS011;66777;52.282;5.960;2023-06-26T09:46:23;464.20;;;452.92;;
77612;SDS011;66777;52.282;5.960;2023-06-26T09:49:03;465.95;;;454.90;;
77612;SDS011;66777;52.282;5.960;2023-06-26T09:51:31;469.00;;;457.83;;
77612;SDS011;66777;52.282;5.960;2023-06-26T09:53:57;473.17;;;462.08;;
77612;SDS011;66777;52.282;5.960;2023-06-26T09:56:27;469.45;;;458.33;;
77612;SDS011;66777;52.282;5.960;2023-06-26T09:58:58;488.67;;;477.13;;
77612;SDS011;66777;52.282;5.960;2023-06-26T10:01:29;468.50;;;457.55;;
77612;SDS011;66777;52.282;5.960;2023-06-26T10:03:56;481.45;;;470.15;;
77612;SDS011;66777;52.282;5.960;2023-06-26T10:06:24;487.65;;;476.05;;
77612;SDS011;66777;52.282;5.960;2023-06-26T10:08:58;489.75;;;478.23;;
77612;SDS011;66777;52.282;5.960;2023-06-26T10:11:29;489.45;;;477.90;;
77612;SDS011;66777;52.282;5.960;2023-06-26T10:14:01;461.25;;;450.30;;
77612;SDS011;66777;52.282;5.960;2023-06-26T10:16:29;496.83;;;485.23;;
77612;SDS011;66777;52.282;5.960;2023-06-26T10:19:02;478.17;;;466.77;;
77612;SDS011;66777;52.282;5.960;2023-06-26T10:21:29;474.90;;;463.75;;
77612;SDS011;66777;52.282;5.960;2023-06-26T10:23:56;474.83;;;463.67;;
77612;SDS011;66777;52.282;5.960;2023-06-26T10:26:23;479.20;;;467.88;;
77612;SDS011;66777;52.282;5.960;2023-06-26T10:28:50;477.05;;;465.77;;
77612;SDS011;66777;52.282;5.960;2023-06-26T10:31:22;491.50;;;479.83;;
77612;SDS011;66777;52.282;5.960;2023-06-26T10:33:51;487.20;;;475.85;;
77612;SDS011;66777;52.282;5.960;2023-06-26T10:36:18;471.48;;;460.33;;
77612;SDS011;66777;52.282;5.960;2023-06-26T10:38:54;488.38;;;476.77;;
77612;SDS011;66777;52.282;5.960;2023-06-26T10:41:22;476.10;;;464.77;;
77612;SDS011;66777;52.282;5.960;2023-06-26T10:43:52;504.13;;;492.23;;
77612;SDS011;66777;52.282;5.960;2023-06-26T10:46:33;476.70;;;465.52;;
77612;SDS011;66777;52.282;5.960;2023-06-26T10:49:13;496.85;;;485.20;;
77612;SDS011;66777;52.282;5.960;2023-06-26T10:51:39;482.77;;;471.42;;
77612;SDS011;66777;52.282;5.960;2023-06-26T10:54:15;478.65;;;467.40;;
77612;SDS011;66777;52.282;5.960;2023-06-26T10:56:47;481.13;;;469.70;;
77612;SDS011;66777;52.282;5.960;2023-06-26T10:59:15;497.83;;;486.10;;
77612;SDS011;66777;52.282;5.960;2023-06-26T11:01:43;489.23;;;477.77;;
77612;SDS011;66777;52.282;5.960;2023-06-26T11:04:13;493.63;;;481.73;;
77612;SDS011;66777;52.282;5.960;2023-06-26T11:06:41;500.65;;;488.73;;
77612;SDS011;66777;52.282;5.960;2023-06-26T11:09:10;502.90;;;490.95;;
77612;SDS011;66777;52.282;5.960;2023-06-26T11:14:16;499.95;;;488.13;;
77612;SDS011;66777;52.282;5.960;2023-06-26T11:16:45;475.35;;;464.10;;
77612;SDS011;66777;52.282;5.960;2023-06-26T11:19:12;501.38;;;489.52;;
77612;SDS011;66777;52.282;5.960;2023-06-26T11:21:39;500.75;;;489.02;;
77612;SDS011;66777;52.282;5.960;2023-06-26T11:24:08;483.85;;;472.23;;
77612;SDS011;66777;52.282;5.960;2023-06-26T11:29:04;468.23;;;457.17;;
77612;SDS011;66777;52.282;5.960;2023-06-26T11:31:31;495.77;;;483.95;;
77612;SDS011;66777;52.282;5.960;2023-06-26T11:33:59;482.25;;;471.02;;
77612;SDS011;66777;52.282;5.960;2023-06-26T11:36:26;490.40;;;478.95;;
77612;SDS011;66777;52.282;5.960;2023-06-26T11:38:56;492.48;;;480.80;;
77612;SDS011;66777;52.282;5.960;2023-06-26T11:41:23;499.48;;;487.60;;
77612;SDS011;66777;52.282;5.960;2023-06-26T11:43:51;500.17;;;488.27;;
77612;SDS011;66777;52.282;5.960;2023-06-26T11:46:17;505.40;;;493.27;;
77612;SDS011;66777;52.282;5.960;2023-06-26T11:48:45;507.45;;;495.50;;
77612;SDS011;66777;52.282;5.960;2023-06-26T11:51:12;505.38;;;493.25;;
77612;SDS011;66777;52.282;5.960;2023-06-26T11:53:40;500.65;;;488.88;;
77612;SDS011;66777;52.282;5.960;2023-06-26T11:56:10;510.27;;;498.13;;
77612;SDS011;66777;52.282;5.960;2023-06-26T11:58:54;510.67;;;498.65;;
77612;SDS011;66777;52.282;5.960;2023-06-26T12:01:20;508.33;;;496.20;;
77612;SDS011;66777;52.282;5.960;2023-06-26T12:03:47;505.67;;;493.65;;
77612;SDS011;66777;52.282;5.960;2023-06-26T12:06:13;511.45;;;499.23;;
77612;SDS011;66777;52.282;5.960;2023-06-26T12:08:39;507.05;;;495.05;;
77612;SDS011;66777;52.282;5.960;2023-06-26T12:11:05;517.05;;;504.75;;
77612;SDS011;66777;52.282;5.960;2023-06-26T12:13:31;495.73;;;484.02;;
77612;SDS011;66777;52.282;5.960;2023-06-26T12:15:57;506.38;;;494.33;;
77612;SDS011;66777;52.282;5.960;2023-06-26T12:18:22;503.52;;;491.70;;
77612;SDS011;66777;52.282;5.960;2023-06-26T12:20:50;513.20;;;501.02;;
77612;SDS011;66777;52.282;5.960;2023-06-26T12:23:16;497.95;;;485.40;;
77612;SDS011;66777;52.282;5.960;2023-06-26T12:25:42;502.17;;;490.33;;
77612;SDS011;66777;52.282;5.960;2023-06-26T12:28:18;508.48;;;496.38;;
77612;SDS011;66777;52.282;5.960;2023-06-26T12:33:13;504.50;;;492.73;;
77612;SDS011;66777;52.282;5.960;2023-06-26T12:35:40;499.42;;;487.58;;
77612;SDS011;66777;52.282;5.960;2023-06-26T12:38:08;485.15;;;473.38;;
77612;SDS011;66777;52.282;5.960;2023-06-26T12:40:44;487.42;;;475.92;;
77612;SDS011;66777;52.282;5.960;2023-06-26T12:43:22;488.70;;;477.10;;
77612;SDS011;66777;52.282;5.960;2023-06-26T12:45:48;496.40;;;484.70;;
77612;SDS011;66777;52.282;5.960;2023-06-26T12:48:19;481.02;;;469.83;;
77612;SDS011;66777;52.282;5.960;2023-06-26T12:50:45;479.67;;;468.40;;
77612;SDS011;66777;52.282;5.960;2023-06-26T12:53:11;476.80;;;465.50;;
77612;SDS011;66777;52.282;5.960;2023-06-26T12:55:37;488.23;;;476.85;;
77612;SDS011;66777;52.282;5.960;2023-06-26T12:58:02;477.17;;;465.55;;
77612;SDS011;66777;52.282;5.960;2023-06-26T13:00:28;492.70;;;480.95;;
77612;SDS011;66777;52.282;5.960;2023-06-26T13:02:55;494.50;;;482.63;;
77612;SDS011;66777;52.282;5.960;2023-06-26T13:05:20;495.55;;;483.90;;
77612;SDS011;66777;52.282;5.960;2023-06-26T13:07:46;484.83;;;473.45;;
77612;SDS011;66777;52.282;5.960;2023-06-26T13:10:12;491.50;;;479.85;;
77612;SDS011;66777;52.282;5.960;2023-06-26T13:12:37;506.60;;;494.70;;
77612;SDS011;66777;52.282;5.960;2023-06-26T13:15:03;498.80;;;487.05;;
77612;SDS011;66777;52.282;5.960;2023-06-26T13:17:30;495.50;;;483.73;;
77612;SDS011;66777;52.282;5.960;2023-06-26T13:19:56;498.20;;;486.38;;
77612;SDS011;66777;52.282;5.960;2023-06-26T13:22:21;497.00;;;485.35;;
77612;SDS011;66777;52.282;5.960;2023-06-26T13:24:47;488.60;;;476.95;;
77612;SDS011;66777;52.282;5.960;2023-06-26T13:27:13;494.13;;;482.05;;
77612;SDS011;66777;52.282;5.960;2023-06-26T13:29:39;498.00;;;486.23;;
77612;SDS011;66777;52.282;5.960;2023-06-26T13:32:04;503.40;;;491.40;;
77612;SDS011;66777;52.282;5.960;2023-06-26T13:34:30;509.60;;;497.50;;
77612;SDS011;66777;52.282;5.960;2023-06-26T13:36:56;506.83;;;494.83;;
77612;SDS011;66777;52.282;5.960;2023-06-26T13:39:24;516.53;;;504.08;;
77612;SDS011;66777;52.282;5.960;2023-06-26T13:41:50;515.55;;;503.27;;
77612;SDS011;66777;52.282;5.960;2023-06-26T13:44:15;504.33;;;492.13;;
77612;SDS011;66777;52.282;5.960;2023-06-26T13:46:41;510.08;;;498.05;;
77612;SDS011;66777;52.282;5.960;2023-06-26T13:49:07;497.13;;;485.23;;
77612;SDS011;66777;52.282;5.960;2023-06-26T13:51:32;508.75;;;496.67;;
77612;SDS011;66777;52.282;5.960;2023-06-26T13:53:58;505.65;;;493.55;;
77612;SDS011;66777;52.282;5.960;2023-06-26T13:56:25;525.55;;;513.08;;
77612;SDS011;66777;52.282;5.960;2023-06-26T13:58:51;492.50;;;480.67;;
77612;SDS011;66777;52.282;5.960;2023-06-26T14:01:16;504.25;;;492.30;;
77612;SDS011;66777;52.282;5.960;2023-06-26T14:03:42;500.17;;;488.33;;
77612;SDS011;66777;52.282;5.960;2023-06-26T14:06:07;505.33;;;493.48;;
77612;SDS011;66777;52.282;5.960;2023-06-26T14:08:33;510.75;;;498.52;;
77612;SDS011;66777;52.282;5.960;2023-06-26T14:10:59;519.88;;;507.50;;
77612;SDS011;66777;52.282;5.960;2023-06-26T14:13:26;491.55;;;479.90;;